Gloversville, New York
Current Conditions -  °F | °C
As of 4:55 AM on Wednesday 26 Nov 2014 (Local Time) from KNY0 Reporting Station
Overcast Overcast  
Wind Chill: 27°   Ceiling: 3300
Heat Index: 32°   Visibility: 10mi
Dew Point: 26°   Wind: 6mph
Humidity: 76%   Direction: 250°WSW
Pressure: 30.2"   Gusts: NA
Location:  43.06°N, 74.34°W
Report Text: KNY0 260955Z AUTO 25005KT 10SM OVC033 00/M04 A3020 RMK AO2 T00011036
Loading
Personal Weather Stations






























Interactive Weather Map New forecast layout! Learn more

10-Day Weather Forecast

Advertisements
Track Severe Weather on mobile